Time,TemperatureF,DewpointF,PressureIn,WindDirection,WindDirectionDegrees,WindSpeedMPH,WindSpeedGustMPH,Humidity,HourlyPrecipIn,Conditions,Clouds,dailyrainin,SoftwareType,DateUTC
2015-04-21 00:01:00,63.0,53.0,-100.00,NNW,342,3.0,8.0,71,-99.99,,,-99.99,,2015-04-21 05:01:00,
2015-04-21 00:11:00,63.0,53.0,-100.00,NNW,342,3.0,8.0,71,-99.99,,,-99.99,,2015-04-21 05:11:00,
2015-04-21 00:21:00,63.0,53.0,-100.00,NNW,342,3.0,8.0,71,-99.99,,,-99.99,,2015-04-21 05:21:00,
2015-04-21 00:52:00,59.0,55.0,-100.00,North,-9999,0.0,4.0,88,-99.99,,,-99.99,,2015-04-21 05:52:00,
2015-04-21 01:01:00,59.0,55.0,-100.00,North,-9999,0.0,4.0,88,-99.99,,,-99.99,,2015-04-21 06:01:00,
2015-04-21 01:11:00,59.0,55.0,-100.00,North,-9999,0.0,4.0,88,-99.99,,,-99.99,,2015-04-21 06:11:00,
2015-04-21 01:21:00,59.0,55.0,-100.00,North,-9999,0.0,4.0,88,-99.99,,,-99.99,,2015-04-21 06:21:00,
2015-04-21 01:51:00,56.0,55.0,-100.00,North,-9999,0.0,3.0,97,-99.99,,,-99.99,,2015-04-21 06:51:00,
2015-04-21 02:02:00,56.0,55.0,-100.00,North,-9999,0.0,3.0,97,-99.99,,,-99.99,,2015-04-21 07:02:00,
2015-04-21 02:11:00,56.0,55.0,-100.00,North,-9999,0.0,3.0,97,-99.99,,,-99.99,,2015-04-21 07:11:00,
2015-04-21 02:21:00,56.0,55.0,-100.00,North,-9999,0.0,3.0,97,-99.99,,,-99.99,,2015-04-21 07:21:00,
2015-04-21 02:52:00,54.0,54.0,-100.00,North,-9999,0.0,2.0,99,-99.99,,,-99.99,,2015-04-21 07:52:00,
2015-04-21 03:01:00,54.0,54.0,-100.00,North,-9999,0.0,2.0,99,-99.99,,,-99.99,,2015-04-21 08:01:00,
2015-04-21 03:11:00,54.0,54.0,-100.00,North,-9999,0.0,2.0,99,-99.99,,,-99.99,,2015-04-21 08:11:00,
2015-04-21 03:21:00,54.0,54.0,-100.00,North,-9999,0.0,2.0,99,-99.99,,,-99.99,,2015-04-21 08:21:00,
2015-04-21 03:51:00,53.0,53.0,-100.00,North,-9999,0.0,0.0,100,-99.99,,,-99.99,,2015-04-21 08:51:00,
2015-04-21 04:01:00,53.0,53.0,-100.00,North,-9999,0.0,0.0,100,-99.99,,,-99.99,,2015-04-21 09:01:00,
2015-04-21 04:11:00,53.0,53.0,-100.00,North,-9999,0.0,0.0,100,-99.99,,,-99.99,,2015-04-21 09:11:00,
2015-04-21 04:21:00,53.0,53.0,-100.00,North,-9999,0.0,0.0,100,-99.99,,,-99.99,,2015-04-21 09:21:00,
2015-04-21 04:51:00,53.0,53.0,-100.00,North,-9999,0.0,2.0,100,-99.99,,,-99.99,,2015-04-21 09:51:00,
2015-04-21 05:01:00,53.0,53.0,-100.00,North,-9999,0.0,2.0,100,-99.99,,,-99.99,,2015-04-21 10:01:00,
2015-04-21 05:11:00,53.0,53.0,-100.00,North,-9999,0.0,2.0,100,-99.99,,,-99.99,,2015-04-21 10:11:00,
2015-04-21 05:21:00,53.0,53.0,-100.00,North,-9999,0.0,2.0,100,-99.99,,,-99.99,,2015-04-21 10:21:00,
2015-04-21 05:52:00,52.0,52.0,-100.00,North,-9999,0.0,2.0,100,-99.99,,,-99.99,,2015-04-21 10:52:00,
2015-04-21 06:02:00,52.0,52.0,-100.00,North,-9999,0.0,2.0,100,-99.99,,,-99.99,,2015-04-21 11:02:00,
2015-04-21 06:11:00,52.0,52.0,-100.00,North,-9999,0.0,2.0,100,-99.99,,,-99.99,,2015-04-21 11:11:00,
2015-04-21 06:21:00,52.0,52.0,-100.00,North,-9999,0.0,2.0,100,-99.99,,,-99.99,,2015-04-21 11:21:00,
2015-04-21 06:52:00,52.0,52.0,-100.00,North,-9999,0.0,2.0,100,-99.99,,,-99.99,,2015-04-21 11:52:00,
2015-04-21 07:01:00,52.0,52.0,-100.00,North,-9999,0.0,2.0,100,-99.99,,,-99.99,,2015-04-21 12:01:00,
2015-04-21 07:11:00,52.0,52.0,-100.00,North,-9999,0.0,2.0,100,-99.99,,,-99.99,,2015-04-21 12:11:00,
2015-04-21 07:21:00,52.0,52.0,-100.00,North,-9999,0.0,2.0,100,-99.99,,,-99.99,,2015-04-21 12:21:00,
2015-04-21 07:52:00,54.0,54.0,-100.00,NNE,32,1.0,3.0,100,-99.99,,,-99.99,,2015-04-21 12:52:00,
2015-04-21 08:01:00,54.0,54.0,-100.00,NNE,32,1.0,3.0,100,-99.99,,,-99.99,,2015-04-21 13:01:00,
2015-04-21 08:11:00,54.0,54.0,-100.00,NNE,32,1.0,3.0,100,-99.99,,,-99.99,,2015-04-21 13:11:00,
2015-04-21 08:21:00,54.0,54.0,-100.00,NNE,32,1.0,3.0,100,-99.99,,,-99.99,,2015-04-21 13:21:00,
2015-04-21 08:51:00,62.0,53.0,-100.00,NE,48,4.0,7.0,73,-99.99,,,-99.99,,2015-04-21 13:51:00,
2015-04-21 09:01:00,62.0,53.0,-100.00,NE,48,4.0,7.0,73,-99.99,,,-99.99,,2015-04-21 14:01:00,
2015-04-21 09:11:00,62.0,53.0,-100.00,NE,48,4.0,7.0,73,-99.99,,,-99.99,,2015-04-21 14:11:00,
2015-04-21 09:21:00,62.0,53.0,-100.00,NE,48,4.0,7.0,73,-99.99,,,-99.99,,2015-04-21 14:21:00,
2015-04-21 09:52:00,69.0,48.0,-100.00,NNE,32,5.0,12.0,48,-99.99,,,-99.99,,2015-04-21 14:52:00,
2015-04-21 10:01:00,69.0,48.0,-100.00,NNE,32,5.0,12.0,48,-99.99,,,-99.99,,2015-04-21 15:01:00,
2015-04-21 10:11:00,69.0,48.0,-100.00,NNE,32,5.0,12.0,48,-99.99,,,-99.99,,2015-04-21 15:11:00,
2015-04-21 10:21:00,69.0,48.0,-100.00,NNE,32,5.0,12.0,48,-99.99,,,-99.99,,2015-04-21 15:21:00,
2015-04-21 10:51:00,71.0,46.0,-100.00,NNE,20,6.0,13.0,41,-99.99,,,-99.99,,2015-04-21 15:51:00,
2015-04-21 11:01:00,71.0,46.0,-100.00,NNE,20,6.0,13.0,41,-99.99,,,-99.99,,2015-04-21 16:01:00,
2015-04-21 11:11:00,71.0,46.0,-100.00,NNE,20,6.0,13.0,41,-99.99,,,-99.99,,2015-04-21 16:11:00,
2015-04-21 11:21:00,71.0,46.0,-100.00,NNE,20,6.0,13.0,41,-99.99,,,-99.99,,2015-04-21 16:21:00,
2015-04-21 11:52:00,74.0,45.0,-100.00,North,7,6.0,14.0,35,-99.99,,,-99.99,,2015-04-21 16:52:00,
2015-04-21 12:01:00,74.0,45.0,-100.00,North,7,6.0,14.0,35,-99.99,,,-99.99,,2015-04-21 17:01:00,
2015-04-21 12:11:00,74.0,45.0,-100.00,North,7,6.0,14.0,35,-99.99,,,-99.99,,2015-04-21 17:11:00,
2015-04-21 12:22:00,74.0,45.0,-100.00,North,7,6.0,14.0,35,-99.99,,,-99.99,,2015-04-21 17:22:00,
2015-04-21 12:52:00,75.0,44.0,-100.00,North,353,6.0,15.0,33,-99.99,,,-99.99,,2015-04-21 17:52:00,
2015-04-21 13:02:00,75.0,44.0,-100.00,North,353,6.0,15.0,33,-99.99,,,-99.99,,2015-04-21 18:02:00,
2015-04-21 13:11:00,75.0,44.0,-100.00,North,353,6.0,15.0,33,-99.99,,,-99.99,,2015-04-21 18:11:00,
2015-04-21 13:22:00,75.0,44.0,-100.00,North,353,6.0,15.0,33,-99.99,,,-99.99,,2015-04-21 18:22:00,
2015-04-21 13:52:00,79.0,47.0,-100.00,East,100,3.0,11.0,32,-99.99,,,-99.99,,2015-04-21 18:52:00,
2015-04-21 14:02:00,79.0,47.0,-100.00,East,100,3.0,11.0,32,-99.99,,,-99.99,,2015-04-21 19:02:00,
2015-04-21 14:12:00,79.0,47.0,-100.00,East,100,3.0,11.0,32,-99.99,,,-99.99,,2015-04-21 19:12:00,
2015-04-21 14:22:00,79.0,47.0,-100.00,East,100,3.0,11.0,32,-99.99,,,-99.99,,2015-04-21 19:22:00,
2015-04-21 14:52:00,79.0,45.0,-100.00,NNW,331,4.0,9.0,30,-99.99,,,-99.99,,2015-04-21 19:52:00,
2015-04-21 15:01:00,79.0,45.0,-100.00,NNW,331,4.0,9.0,30,-99.99,,,-99.99,,2015-04-21 20:01:00,
2015-04-21 15:11:00,79.0,45.0,-100.00,NNW,331,4.0,9.0,30,-99.99,,,-99.99,,2015-04-21 20:11:00,
2015-04-21 15:21:00,79.0,45.0,-100.00,NNW,331,4.0,9.0,30,-99.99,,,-99.99,,2015-04-21 20:21:00,
2015-04-21 15:52:00,77.0,50.0,-100.00,South,171,7.0,14.0,39,-99.99,,,-99.99,,2015-04-21 20:52:00,
2015-04-21 16:01:00,77.0,50.0,-100.00,South,171,7.0,14.0,39,-99.99,,,-99.99,,2015-04-21 21:01:00,
2015-04-21 16:11:00,77.0,50.0,-100.00,South,171,7.0,14.0,39,-99.99,,,-99.99,,2015-04-21 21:11:00,
2015-04-21 16:21:00,77.0,50.0,-100.00,South,171,7.0,14.0,39,-99.99,,,-99.99,,2015-04-21 21:21:00,
2015-04-21 16:52:00,76.0,51.0,-100.00,SSE,168,6.0,12.0,42,-99.99,,,-99.99,,2015-04-21 21:52:00,
2015-04-21 17:01:00,76.0,51.0,-100.00,SSE,168,6.0,12.0,42,-99.99,,,-99.99,,2015-04-21 22:01:00,
2015-04-21 17:11:00,76.0,51.0,-100.00,SSE,168,6.0,12.0,42,-99.99,,,-99.99,,2015-04-21 22:11:00,
2015-04-21 17:21:00,76.0,51.0,-100.00,SSE,168,6.0,12.0,42,-99.99,,,-99.99,,2015-04-21 22:21:00,
2015-04-21 17:52:00,75.0,50.0,-100.00,SSE,161,4.0,11.0,42,-99.99,,,-99.99,,2015-04-21 22:52:00,
2015-04-21 18:01:00,75.0,50.0,-100.00,SSE,161,4.0,11.0,42,-99.99,,,-99.99,,2015-04-21 23:01:00,
2015-04-21 18:11:00,75.0,50.0,-100.00,SSE,161,4.0,11.0,42,-99.99,,,-99.99,,2015-04-21 23:11:00,
2015-04-21 18:22:00,75.0,50.0,-100.00,SSE,161,4.0,11.0,42,-99.99,,,-99.99,,2015-04-21 23:22:00,
2015-04-21 18:52:00,73.0,51.0,-100.00,SSW,193,4.0,9.0,46,-99.99,,,-99.99,,2015-04-21 23:52:00,
2015-04-21 19:01:00,73.0,51.0,-100.00,SSW,193,4.0,9.0,46,-99.99,,,-99.99,,2015-04-22 00:01:00,
2015-04-21 19:11:00,73.0,51.0,-100.00,SSW,193,4.0,9.0,46,-99.99,,,-99.99,,2015-04-22 00:11:00,
2015-04-21 19:21:00,73.0,51.0,-100.00,SSW,193,4.0,9.0,46,-99.99,,,-99.99,,2015-04-22 00:21:00,
2015-04-21 19:52:00,67.0,53.0,-100.00,SSW,193,3.0,7.0,60,-99.99,,,-99.99,,2015-04-22 00:52:00,
2015-04-21 20:01:00,67.0,53.0,-100.00,SSW,193,3.0,7.0,60,-99.99,,,-99.99,,2015-04-22 01:01:00,
2015-04-21 20:11:00,67.0,53.0,-100.00,SSW,193,3.0,7.0,60,-99.99,,,-99.99,,2015-04-22 01:11:00,
2015-04-21 20:21:00,67.0,53.0,-100.00,SSW,193,3.0,7.0,60,-99.99,,,-99.99,,2015-04-22 01:21:00,